createdAt,value
2022-11-30T00:01:13.561Z,95.83
2022-11-30T00:03:40.026Z,95.38
2022-11-30T00:06:07.848Z,95.74
2022-11-30T00:08:35.307Z,95.92
2022-11-30T00:11:17.934Z,96.34
2022-11-30T00:13:45.260Z,96.44
2022-11-30T00:16:11.700Z,97.13
2022-11-30T00:18:38.250Z,96.26
2022-11-30T00:21:08.563Z,96.40
2022-11-30T00:23:37.785Z,96.34
2022-11-30T00:26:09.399Z,96.37
2022-11-30T00:28:36.257Z,96.46
2022-11-30T00:31:05.552Z,96.74
2022-11-30T00:33:36.581Z,96.72
2022-11-30T00:36:05.488Z,96.75
2022-11-30T00:38:32.244Z,97.32
2022-11-30T00:40:59.225Z,97.34
2022-11-30T00:43:25.714Z,97.62
2022-11-30T00:45:52.227Z,97.32
2022-11-30T00:48:18.762Z,97.05
2022-11-30T00:50:45.372Z,97.72
2022-11-30T00:53:11.893Z,97.45
2022-11-30T00:55:38.468Z,97.49
2022-11-30T00:58:07.044Z,97.16
2022-11-30T01:00:33.930Z,97.03
2022-11-30T01:03:00.514Z,96.91
2022-11-30T01:05:26.944Z,97.20
2022-11-30T01:07:53.485Z,96.85
2022-11-30T01:10:20.082Z,97.39
2022-11-30T01:12:46.535Z,97.43
2022-11-30T01:15:12.954Z,97.45
2022-11-30T01:17:39.511Z,97.43
2022-11-30T01:20:07.919Z,96.93
2022-11-30T01:22:35.747Z,96.91
2022-11-30T01:25:02.677Z,97.15
2022-11-30T01:27:29.123Z,97.07
2022-11-30T01:29:55.622Z,96.62
2022-11-30T01:32:22.304Z,97.22
2022-11-30T01:34:49.080Z,97.24
2022-11-30T01:37:15.861Z,97.27
2022-11-30T01:39:42.384Z,96.96
2022-11-30T01:42:15.065Z,96.68
2022-11-30T01:44:52.203Z,96.62
2022-11-30T01:47:25.049Z,97.07
2022-11-30T01:49:55.262Z,97.54
2022-11-30T01:52:51.004Z,97.16
2022-11-30T01:55:23.976Z,96.43
2022-11-30T01:58:02.343Z,96.82
2022-11-30T02:00:29.021Z,97.27
2022-11-30T02:03:00.831Z,97.21
2022-11-30T02:05:27.971Z,97.06
2022-11-30T02:07:55.045Z,97.05
2022-11-30T02:10:26.001Z,97.04
2022-11-30T02:13:23.399Z,96.96
2022-11-30T02:15:55.462Z,96.66
2022-11-30T02:18:27.430Z,96.58
2022-11-30T02:21:07.094Z,96.85
2022-11-30T02:24:01.392Z,96.12
2022-11-30T02:27:05.396Z,96.34
2022-11-30T02:29:37.958Z,96.25
2022-11-30T02:32:15.845Z,96.82
2022-11-30T02:34:43.644Z,96.78
2022-11-30T02:37:12.520Z,96.73
2022-11-30T02:39:38.953Z,96.78
2022-11-30T02:42:11.829Z,97.04
2022-11-30T02:44:38.493Z,97.39
2022-11-30T02:47:26.461Z,97.21
2022-11-30T02:50:06.296Z,96.86
2022-11-30T02:52:34.032Z,97.53
2022-11-30T02:55:06.514Z,97.37
2022-11-30T02:57:33.912Z,97.63
2022-11-30T03:00:02.552Z,96.72
2022-11-30T03:02:29.106Z,96.95
2022-11-30T03:04:55.532Z,96.83
2022-11-30T03:07:22.393Z,97.76
2022-11-30T03:09:48.859Z,96.46
2022-11-30T03:12:15.421Z,96.64
2022-11-30T03:14:42.075Z,96.91
2022-11-30T03:17:08.637Z,96.61
2022-11-30T03:19:35.430Z,96.09
2022-11-30T03:22:02.106Z,95.87
2022-11-30T03:24:28.597Z,95.01
2022-11-30T03:26:55.114Z,96.06
2022-11-30T03:29:22.007Z,95.91
2022-11-30T03:31:48.627Z,95.87
2022-11-30T03:34:15.296Z,95.66
2022-11-30T03:36:41.857Z,95.78
2022-11-30T03:39:09.583Z,95.40
2022-11-30T03:41:36.082Z,95.66
2022-11-30T03:44:02.595Z,96.18
2022-11-30T03:46:29.209Z,96.56
2022-11-30T03:48:55.734Z,96.81
2022-11-30T03:51:22.482Z,96.88
2022-11-30T03:53:49.013Z,96.48
2022-11-30T03:56:15.645Z,96.59
2022-11-30T03:58:42.747Z,96.39
2022-11-30T04:01:15.520Z,96.13
2022-11-30T04:03:42.730Z,96.62
2022-11-30T04:06:10.599Z,96.20
2022-11-30T04:08:37.728Z,96.68
2022-11-30T04:11:04.998Z,96.73
2022-11-30T04:13:35.196Z,96.27
2022-11-30T04:16:02.348Z,95.55
2022-11-30T04:18:30.173Z,95.87
2022-11-30T04:20:58.235Z,95.52
2022-11-30T04:23:25.652Z,95.52
2022-11-30T04:25:52.200Z,95.85
2022-11-30T04:28:19.198Z,95.61
2022-11-30T04:30:46.313Z,95.24
2022-11-30T04:33:14.193Z,95.43
2022-11-30T04:35:42.452Z,94.64
2022-11-30T04:38:09.206Z,93.71
2022-11-30T04:40:39.710Z,94.58
2022-11-30T04:43:06.458Z,94.86
2022-11-30T04:45:35.466Z,94.74
2022-11-30T04:48:03.332Z,94.96
2022-11-30T04:50:29.926Z,94.88
2022-11-30T04:52:56.515Z,95.04
2022-11-30T04:55:23.338Z,94.23
2022-11-30T04:57:50.014Z,94.07
2022-11-30T05:00:17.565Z,94.17
2022-11-30T05:02:50.586Z,94.78
2022-11-30T05:05:18.912Z,95.08
2022-11-30T05:07:49.545Z,94.67
2022-11-30T05:10:16.222Z,94.76
2022-11-30T05:12:42.871Z,94.79
2022-11-30T05:15:09.987Z,94.31
2022-11-30T05:17:36.813Z,94.65
2022-11-30T05:20:03.651Z,94.10
2022-11-30T05:22:30.127Z,94.30
2022-11-30T05:24:56.626Z,94.38
2022-11-30T05:27:23.142Z,93.54
2022-11-30T05:29:49.632Z,93.75
2022-11-30T05:32:16.104Z,93.49
2022-11-30T05:34:50.741Z,93.29
2022-11-30T05:37:18.976Z,93.73
2022-11-30T05:39:45.575Z,93.57
2022-11-30T05:42:12.056Z,93.66
2022-11-30T05:44:38.519Z,93.91
2022-11-30T05:47:05.149Z,93.41
2022-11-30T05:49:31.829Z,93.37
2022-11-30T05:51:58.308Z,93.41
2022-11-30T05:54:24.789Z,93.33
2022-11-30T05:56:54.685Z,92.99
2022-11-30T05:59:21.691Z,92.99
2022-11-30T06:01:48.713Z,93.50
2022-11-30T06:04:15.808Z,94.11
2022-11-30T06:06:42.299Z,94.44
2022-11-30T06:09:08.744Z,94.37
2022-11-30T06:11:35.718Z,93.71
2022-11-30T06:14:02.209Z,94.00
2022-11-30T06:16:28.820Z,93.61
2022-11-30T06:18:55.597Z,94.18
2022-11-30T06:21:24.749Z,93.94
2022-11-30T06:23:52.763Z,93.71
2022-11-30T06:26:19.248Z,94.54
2022-11-30T06:28:48.524Z,93.88
2022-11-30T06:31:16.362Z,94.58
2022-11-30T06:33:43.219Z,93.06
2022-11-30T06:36:10.528Z,93.95
2022-11-30T06:38:38.151Z,93.53
2022-11-30T06:41:06.215Z,93.63
2022-11-30T06:43:35.216Z,94.03
2022-11-30T06:46:02.860Z,94.54
2022-11-30T06:48:29.401Z,94.99
2022-11-30T06:50:55.941Z,95.22
2022-11-30T06:53:22.579Z,95.54
2022-11-30T06:55:49.274Z,95.25
2022-11-30T06:58:15.876Z,94.91
2022-11-30T07:00:42.895Z,94.83
2022-11-30T07:03:11.817Z,95.30
2022-11-30T07:05:44.044Z,96.00
2022-11-30T07:08:11.930Z,95.60
2022-11-30T07:10:42.173Z,95.59
2022-11-30T07:13:19.295Z,95.74
2022-11-30T07:15:46.074Z,96.33
2022-11-30T07:18:12.847Z,96.23
2022-11-30T07:20:40.233Z,95.91
2022-11-30T07:23:25.793Z,96.20
2022-11-30T07:26:09.689Z,95.93
2022-11-30T07:28:40.837Z,95.75
2022-11-30T07:31:19.844Z,95.27
2022-11-30T07:33:47.435Z,95.28
2022-11-30T07:36:14.341Z,94.96
2022-11-30T07:38:41.095Z,95.13
2022-11-30T07:41:07.857Z,95.42
2022-11-30T07:43:35.748Z,94.84
2022-11-30T07:46:02.662Z,95.29
2022-11-30T07:48:29.700Z,95.54
2022-11-30T07:51:03.329Z,95.27
2022-11-30T07:53:31.192Z,95.40
2022-11-30T07:56:08.503Z,95.53
2022-11-30T07:58:35.841Z,95.18
2022-11-30T08:01:03.602Z,95.53
2022-11-30T08:03:36.433Z,95.80
2022-11-30T08:06:07.268Z,96.55
2022-11-30T08:08:36.425Z,96.21
2022-11-30T08:11:03.934Z,95.52
2022-11-30T08:13:30.584Z,95.54
2022-11-30T08:16:01.556Z,96.42
2022-11-30T08:18:28.062Z,96.74
2022-11-30T08:20:58.384Z,97.21
2022-11-30T08:23:25.675Z,96.48
2022-11-30T08:25:52.118Z,96.51
2022-11-30T08:28:18.665Z,96.33
2022-11-30T08:30:45.379Z,96.62
2022-11-30T08:33:12.238Z,96.76
2022-11-30T08:35:38.794Z,97.00
2022-11-30T08:38:05.401Z,97.32
2022-11-30T08:40:31.815Z,96.80
2022-11-30T08:42:59.035Z,96.90
2022-11-30T08:45:25.869Z,96.80
2022-11-30T08:47:54.503Z,96.43
2022-11-30T08:50:21.009Z,95.99
2022-11-30T08:52:47.554Z,95.73
2022-11-30T08:55:14.021Z,96.23
2022-11-30T08:57:40.660Z,95.88
2022-11-30T09:00:09.246Z,96.07
2022-11-30T09:02:37.589Z,95.71
2022-11-30T09:05:04.310Z,96.72
2022-11-30T09:07:31.095Z,96.86
2022-11-30T09:09:57.554Z,97.05
2022-11-30T09:12:24.132Z,97.31
2022-11-30T09:14:56.031Z,96.69
2022-11-30T09:17:24.634Z,96.86
2022-11-30T09:19:51.246Z,96.03
2022-11-30T09:22:18.368Z,95.93
2022-11-30T09:24:45.241Z,97.04
2022-11-30T09:27:12.423Z,97.75
2022-11-30T09:29:38.847Z,98.06
2022-11-30T09:32:05.771Z,97.78
2022-11-30T09:34:32.528Z,98.58
2022-11-30T09:36:59.010Z,98.48
2022-11-30T09:39:25.616Z,98.30
2022-11-30T09:42:07.169Z,97.96
2022-11-30T09:44:50.480Z,97.33
2022-11-30T09:50:33.782Z,97.97
2022-11-30T09:53:06.849Z,98.09
2022-11-30T09:55:39.332Z,97.85
2022-11-30T09:58:06.430Z,97.18
2022-11-30T10:00:36.947Z,97.59
2022-11-30T10:03:06.157Z,97.50
2022-11-30T10:05:46.895Z,97.13
2022-11-30T10:08:36.973Z,97.61
2022-11-30T10:11:28.527Z,97.90
2022-11-30T10:14:49.645Z,98.56
2022-11-30T10:17:37.605Z,98.73
2022-11-30T10:20:20.056Z,99.14
2022-11-30T10:23:03.137Z,98.97
2022-11-30T10:25:54.333Z,99.37
2022-11-30T10:28:47.777Z,99.30
2022-11-30T10:31:15.694Z,98.53
2022-11-30T10:33:51.048Z,98.53
2022-11-30T10:36:37.097Z,98.07
2022-11-30T10:39:14.248Z,97.54
2022-11-30T10:41:48.008Z,98.65
2022-11-30T10:44:26.005Z,98.77
2022-11-30T10:46:59.714Z,99.37
2022-11-30T10:49:29.119Z,99.53
2022-11-30T10:52:01.107Z,98.96
2022-11-30T10:54:30.202Z,98.55
2022-11-30T10:56:58.947Z,99.10
2022-11-30T10:59:31.086Z,99.55
2022-11-30T11:01:57.603Z,99.58
2022-11-30T11:04:27.913Z,100.00
2022-11-30T11:06:57.437Z,99.85
2022-11-30T11:09:27.423Z,99.21
2022-11-30T11:12:05.904Z,98.88
2022-11-30T11:14:37.758Z,99.85
2022-11-30T11:17:23.683Z,99.64
2022-11-30T11:19:50.905Z,99.94
2022-11-30T11:22:25.190Z,99.80
2022-11-30T11:24:54.454Z,99.42
2022-11-30T11:27:24.680Z,99.17
2022-11-30T11:30:06.123Z,100.00
2022-11-30T11:32:32.760Z,100.00
2022-11-30T11:34:59.633Z,99.97
2022-11-30T11:37:31.688Z,100.00
2022-11-30T11:40:16.858Z,99.93
2022-11-30T11:42:53.800Z,100.00
2022-11-30T11:45:22.533Z,100.00
2022-11-30T11:48:02.004Z,100.00
2022-11-30T11:51:06.257Z,100.00
2022-11-30T11:53:46.283Z,100.00
2022-11-30T11:56:24.786Z,100.00
2022-11-30T11:58:56.949Z,100.00
2022-11-30T12:01:56.382Z,100.00
2022-11-30T12:04:34.313Z,100.00
2022-11-30T12:07:02.919Z,100.00
2022-11-30T12:09:35.731Z,100.00
2022-11-30T12:12:02.725Z,100.00
2022-11-30T12:14:30.444Z,100.00
2022-11-30T12:17:06.397Z,100.00
2022-11-30T12:20:00.774Z,100.00
2022-11-30T12:22:42.652Z,100.00
2022-11-30T12:25:23.348Z,100.00
2022-11-30T12:28:11.475Z,100.00
2022-11-30T12:31:17.839Z,100.00
2022-11-30T12:33:44.301Z,100.00
2022-11-30T12:36:20.107Z,100.00
2022-11-30T12:38:46.545Z,100.00
2022-11-30T12:41:23.050Z,100.00
2022-11-30T12:44:10.998Z,100.00
2022-11-30T12:46:55.249Z,100.00
2022-11-30T12:49:26.787Z,100.00
2022-11-30T12:52:03.863Z,100.00
2022-11-30T12:54:40.333Z,100.00
2022-11-30T12:57:12.978Z,100.00
2022-11-30T12:59:48.141Z,100.00
2022-11-30T13:02:14.731Z,100.00
2022-11-30T13:04:45.968Z,100.00
2022-11-30T13:07:49.684Z,100.00
2022-11-30T13:10:22.549Z,100.00
2022-11-30T13:12:51.371Z,100.00
2022-11-30T13:15:20.799Z,100.00
2022-11-30T13:17:47.873Z,100.00
2022-11-30T13:20:39.865Z,100.00
2022-11-30T13:23:15.022Z,100.00
2022-11-30T13:26:08.968Z,100.00
2022-11-30T13:28:41.734Z,100.00
2022-11-30T13:31:14.611Z,100.00
2022-11-30T13:33:53.293Z,100.00
2022-11-30T13:36:22.818Z,100.00
2022-11-30T13:39:09.725Z,100.00
2022-11-30T13:41:37.251Z,100.00
2022-11-30T13:44:04.187Z,100.00
2022-11-30T13:46:31.229Z,100.00
2022-11-30T13:49:19.857Z,100.00
2022-11-30T13:51:50.235Z,100.00
2022-11-30T13:54:38.901Z,100.00
2022-11-30T13:57:30.202Z,100.00
2022-11-30T14:00:01.893Z,100.00
2022-11-30T14:02:42.060Z,100.00
2022-11-30T14:05:22.588Z,100.00
2022-11-30T14:07:51.991Z,100.00
2022-11-30T14:10:39.217Z,100.00
2022-11-30T14:13:29.822Z,100.00
2022-11-30T14:16:00.804Z,100.00
2022-11-30T14:18:30.068Z,100.00
2022-11-30T14:21:32.166Z,100.00
2022-11-30T14:24:06.523Z,100.00
2022-11-30T14:26:39.577Z,100.00
2022-11-30T14:29:16.888Z,100.00
2022-11-30T14:31:58.644Z,100.00
2022-11-30T14:34:28.738Z,100.00
2022-11-30T14:37:22.244Z,100.00
2022-11-30T14:39:49.781Z,100.00
2022-11-30T14:42:35.510Z,100.00
2022-11-30T14:45:02.012Z,100.00
2022-11-30T14:47:31.440Z,100.00
2022-11-30T14:50:02.087Z,100.00
2022-11-30T14:52:52.526Z,100.00
2022-11-30T14:55:27.827Z,100.00
2022-11-30T14:58:16.225Z,100.00
2022-11-30T15:00:44.736Z,100.00
2022-11-30T15:03:25.309Z,100.00
2022-11-30T15:05:57.707Z,100.00
2022-11-30T15:08:33.314Z,100.00
2022-11-30T15:11:10.123Z,100.00
2022-11-30T15:13:41.634Z,100.00
2022-11-30T15:16:51.110Z,100.00
2022-11-30T15:19:26.661Z,100.00
2022-11-30T15:21:54.692Z,100.00
2022-11-30T15:24:22.044Z,100.00
2022-11-30T15:27:21.972Z,100.00
2022-11-30T15:29:58.821Z,100.00
2022-11-30T15:32:25.754Z,100.00
2022-11-30T15:34:57.737Z,100.00
2022-11-30T15:37:31.700Z,100.00
2022-11-30T15:40:00.914Z,99.92
2022-11-30T15:42:39.878Z,100.00
2022-11-30T15:45:26.683Z,100.00
2022-11-30T15:47:54.880Z,100.00
2022-11-30T15:50:30.618Z,100.00
2022-11-30T15:53:03.021Z,100.00
2022-11-30T15:55:51.249Z,100.00
2022-11-30T15:58:39.500Z,100.00
2022-11-30T16:01:09.769Z,100.00
2022-11-30T16:03:56.534Z,100.00
2022-11-30T16:06:25.176Z,100.00
2022-11-30T16:08:52.055Z,100.00
2022-11-30T16:11:19.826Z,100.00
2022-11-30T16:13:47.432Z,100.00
2022-11-30T16:16:21.691Z,100.00
2022-11-30T16:18:48.547Z,100.00
2022-11-30T16:21:17.288Z,100.00
2022-11-30T16:23:44.341Z,100.00
2022-11-30T16:26:43.132Z,100.00
2022-11-30T16:29:04.562Z,100.00
2022-11-30T16:31:31.303Z,100.00
2022-11-30T16:33:57.887Z,100.00
2022-11-30T16:36:24.702Z,100.00
2022-11-30T16:38:52.236Z,100.00
2022-11-30T16:41:19.813Z,100.00
2022-11-30T16:43:47.974Z,100.00
2022-11-30T16:46:17.290Z,100.00
2022-11-30T16:48:43.869Z,100.00
2022-11-30T16:51:22.960Z,100.00
2022-11-30T16:53:49.511Z,100.00
2022-11-30T16:56:16.567Z,100.00
2022-11-30T16:58:44.408Z,100.00
2022-11-30T17:01:37.637Z,100.00
2022-11-30T17:04:11.498Z,100.00
2022-11-30T17:06:37.980Z,100.00
2022-11-30T17:09:04.626Z,100.00
2022-11-30T17:11:36.400Z,100.00
2022-11-30T17:14:03.501Z,100.00
2022-11-30T17:16:30.521Z,100.00
2022-11-30T17:18:57.026Z,100.00
2022-11-30T17:21:26.998Z,100.00
2022-11-30T17:23:53.826Z,100.00
2022-11-30T17:26:20.890Z,100.00
2022-11-30T17:28:47.521Z,100.00
2022-11-30T17:31:14.601Z,100.00
2022-11-30T17:33:47.788Z,100.00
2022-11-30T17:36:16.565Z,100.00
2022-11-30T17:38:44.267Z,100.00
2022-11-30T17:41:19.100Z,100.00
2022-11-30T17:43:47.093Z,100.00
2022-11-30T17:46:18.364Z,100.00
2022-11-30T17:48:45.496Z,100.00
2022-11-30T17:51:13.285Z,100.00
2022-11-30T17:53:41.331Z,100.00
2022-11-30T17:56:16.087Z,99.34
2022-11-30T17:58:44.812Z,99.47
2022-11-30T18:01:21.155Z,100.00
2022-11-30T18:03:48.951Z,100.00
2022-11-30T18:06:16.047Z,99.80
2022-11-30T18:08:42.803Z,99.41
2022-11-30T18:11:20.656Z,99.17
2022-11-30T18:13:51.835Z,99.57
2022-11-30T18:16:21.582Z,99.08
2022-11-30T18:18:48.963Z,99.26
2022-11-30T18:21:18.155Z,98.54
2022-11-30T18:23:44.726Z,98.76
2022-11-30T18:26:14.000Z,98.95
2022-11-30T18:28:41.157Z,99.26
2022-11-30T18:31:07.859Z,99.13
2022-11-30T18:33:38.308Z,98.74
2022-11-30T18:36:08.958Z,98.97
2022-11-30T18:38:38.548Z,98.57
2022-11-30T18:41:05.501Z,98.17
2022-11-30T18:43:34.093Z,97.18
2022-11-30T18:46:04.981Z,96.47
2022-11-30T18:48:31.766Z,96.44
2022-11-30T18:50:58.333Z,96.83
2022-11-30T18:53:24.916Z,96.50
2022-11-30T18:55:51.807Z,95.84
2022-11-30T18:58:18.463Z,95.64
2022-11-30T19:00:45.004Z,95.16
2022-11-30T19:03:11.870Z,95.21
2022-11-30T19:05:40.569Z,94.91
2022-11-30T19:08:09.072Z,94.63
2022-11-30T19:10:38.053Z,94.90
2022-11-30T19:13:05.800Z,95.39
2022-11-30T19:15:39.832Z,95.34
2022-11-30T19:18:07.640Z,94.98
2022-11-30T19:20:41.410Z,94.67
2022-11-30T19:23:08.655Z,95.07
2022-11-30T19:25:38.760Z,95.22
2022-11-30T19:28:05.902Z,94.75
2022-11-30T19:30:32.579Z,94.31
2022-11-30T19:32:59.107Z,93.48
2022-11-30T19:35:25.849Z,94.05
2022-11-30T19:37:52.664Z,94.08
2022-11-30T19:40:19.297Z,94.61
2022-11-30T19:42:45.788Z,93.75
2022-11-30T19:45:12.363Z,93.82
2022-11-30T19:47:38.844Z,94.24
2022-11-30T19:50:05.763Z,93.82
2022-11-30T19:52:32.218Z,93.92
2022-11-30T19:54:58.650Z,94.13
2022-11-30T19:57:25.076Z,93.59
2022-11-30T19:59:51.586Z,93.80
2022-11-30T20:02:18.120Z,93.70
2022-11-30T20:04:44.783Z,94.01
2022-11-30T20:07:11.227Z,94.32
2022-11-30T20:09:38.148Z,93.92
2022-11-30T20:12:04.936Z,94.17
2022-11-30T20:14:31.367Z,94.16
2022-11-30T20:16:57.882Z,93.95
2022-11-30T20:19:24.338Z,94.16
2022-11-30T20:21:51.177Z,94.47
2022-11-30T20:24:17.685Z,94.11
2022-11-30T20:26:44.604Z,94.91
2022-11-30T20:29:14.707Z,94.39
2022-11-30T20:31:42.094Z,94.09
2022-11-30T20:34:09.036Z,94.29
2022-11-30T20:36:36.040Z,94.17
2022-11-30T20:39:03.049Z,93.95
2022-11-30T20:41:29.682Z,93.58
2022-11-30T20:43:56.738Z,94.13
2022-11-30T20:46:31.728Z,94.72
2022-11-30T20:48:58.903Z,94.25
2022-11-30T20:51:35.888Z,93.91
2022-11-30T20:54:07.059Z,93.61
2022-11-30T20:56:36.513Z,93.60
2022-11-30T20:59:05.830Z,94.23
2022-11-30T21:01:32.648Z,94.15
2022-11-30T21:04:02.090Z,93.76
2022-11-30T21:06:31.305Z,93.92
2022-11-30T21:08:58.489Z,93.17
2022-11-30T21:11:25.615Z,93.12
2022-11-30T21:13:52.308Z,92.99
2022-11-30T21:16:26.870Z,92.96
2022-11-30T21:18:54.609Z,93.86
2022-11-30T21:21:23.319Z,94.44
2022-11-30T21:23:50.218Z,94.05
2022-11-30T21:26:25.069Z,94.13
2022-11-30T21:28:53.716Z,94.34
2022-11-30T21:31:21.645Z,94.74
2022-11-30T21:33:52.673Z,94.92
2022-11-30T21:36:20.560Z,95.65
2022-11-30T21:38:47.030Z,94.82
2022-11-30T21:41:14.329Z,95.85
2022-11-30T21:43:41.475Z,95.39
2022-11-30T21:46:13.800Z,95.72
2022-11-30T21:48:42.095Z,96.37
2022-11-30T21:51:10.652Z,96.07
2022-11-30T21:53:39.363Z,95.66
2022-11-30T21:56:07.567Z,95.69
2022-11-30T21:58:35.251Z,96.13
2022-11-30T22:01:02.461Z,96.19
2022-11-30T22:03:29.333Z,96.05
2022-11-30T22:06:03.754Z,96.88
2022-11-30T22:08:31.108Z,96.15
2022-11-30T22:11:01.814Z,96.73
2022-11-30T22:13:29.602Z,96.50
2022-11-30T22:16:04.709Z,97.17
2022-11-30T22:18:31.593Z,96.67
2022-11-30T22:21:06.641Z,96.02
2022-11-30T22:23:35.188Z,96.24
2022-11-30T22:26:20.867Z,96.35
2022-11-30T22:28:49.356Z,96.11
2022-11-30T22:31:17.625Z,96.30
2022-11-30T22:33:45.214Z,96.25
2022-11-30T22:36:17.320Z,96.19
2022-11-30T22:38:43.823Z,96.26
2022-11-30T22:41:15.189Z,96.89
2022-11-30T22:43:46.241Z,96.54
2022-11-30T22:46:18.887Z,95.82
2022-11-30T22:48:46.256Z,96.70
2022-11-30T22:51:20.388Z,97.78
2022-11-30T22:53:47.941Z,96.35
2022-11-30T22:56:22.509Z,95.67
2022-11-30T22:58:50.326Z,96.46
2022-11-30T23:01:19.248Z,97.00
2022-11-30T23:03:47.067Z,96.72
2022-11-30T23:06:15.725Z,97.27
2022-11-30T23:08:42.645Z,96.94
2022-11-30T23:11:12.014Z,97.04
2022-11-30T23:13:39.726Z,97.75
2022-11-30T23:16:06.921Z,97.54
2022-11-30T23:18:39.331Z,97.94
2022-11-30T23:21:09.337Z,98.73
2022-11-30T23:23:35.747Z,98.21
2022-11-30T23:26:13.707Z,98.16
2022-11-30T23:28:41.379Z,98.31
2022-11-30T23:31:33.788Z,98.38
2022-11-30T23:33:59.439Z,98.29
2022-11-30T23:36:25.928Z,99.21
2022-11-30T23:39:04.599Z,99.03
2022-11-30T23:41:31.159Z,99.47
2022-11-30T23:43:57.799Z,99.84
2022-11-30T23:46:24.390Z,99.67
2022-11-30T23:48:51.196Z,99.54
2022-11-30T23:51:18.021Z,100.00
2022-11-30T23:53:44.687Z,99.88
2022-11-30T23:56:14.204Z,100.00
2022-11-30T23:58:40.733Z,100.00
